Terminal Aerodrome Forecast
Issued by NWS Albany, NY

Home | Current Version | Previous Version | Text Only | Print | Product List | Glossary On
Versions: 1 2 3 4 5 6 7 8 9 10 11 12 13 14 15 16 17 18 19 20 21 22 23
000
FTUS41 KALY 230559 CCA
TAFGFL
TAF COR
KGFL 230559Z 2306/2406 00000KT 4SM BR SCT003 OVC020
      TEMPO 2307/2309 2SM BR BKN004 OVC025
     FM230900 00000KT 4SM BR SCT006 OVC015
      TEMPO 2309/2311 2SM BR BKN006 OVC015
     FM231100 VRB03KT 3SM -RA BR OVC009 WS020/18035KT
     FM231200 VRB03KT 1SM RA OVC009 WS020/18035KT
     FM231900 21004KT 2SM -SHRA BR OVC008
     FM240000 24006KT P6SM VCSH OVC025=

USA.gov is the U.S. government's official web portal to all federal, state and local government web resources and services.